Time;durP1;ratioP1;P1;durP2;ratioP2;P2;SDS_P1;SDS_P2;PMS_P1;PMS_P2;Temp;Humidity;BMP_temperature;BMP_pressure;BME280_temperature;BME280_humidity;BME280_pressure;Samples;Min_cycle;Max_cycle;Signal;HPM_P1;HPM_P2
2022/03/22 00:00:33;;;;;;;9.37;7.30;;;3.30;57.20;;;;;;5097253;28;20224;-89
2022/03/22 00:02:59;;;;;;;10.53;7.53;;;3.20;57.00;;;;;;5097064;28;20166;-86
2022/03/22 00:05:25;;;;;;;10.83;7.17;;;3.30;57.10;;;;;;5112493;28;20243;-86
2022/03/22 00:07:51;;;;;;;7.53;6.83;;;3.20;57.20;;;;;;5111872;28;20649;-91
2022/03/22 00:10:17;;;;;;;9.53;7.00;;;3.20;57.80;;;;;;5096702;28;20176;-90
2022/03/22 00:12:43;;;;;;;8.63;7.73;;;3.20;58.20;;;;;;5095234;28;20236;-87
2022/03/22 00:15:11;;;;;;;9.10;7.97;;;3.30;57.90;;;;;;5097044;28;20254;-89
2022/03/22 00:17:38;;;;;;;10.10;7.57;;;3.30;57.80;;;;;;5096563;28;20692;-89
2022/03/22 00:20:10;;;;;;;9.07;7.93;;;3.20;58.10;;;;;;5096663;28;20205;-91
2022/03/22 00:22:40;;;;;;;11.10;7.90;;;3.10;58.00;;;;;;5096635;28;20205;-89
2022/03/22 00:25:10;;;;;;;9.80;7.37;;;3.00;58.00;;;;;;5095892;28;20478;-90
2022/03/22 00:27:54;;;;;;;8.87;7.13;;;3.00;58.40;;;;;;5097329;28;20180;-91
2022/03/22 00:30:22;;;;;;;10.93;7.87;;;3.00;58.90;;;;;;5097117;28;20212;-90
2022/03/22 00:32:52;;;;;;;9.40;8.27;;;2.90;59.00;;;;;;5097486;28;20197;-86
2022/03/22 00:35:18;;;;;;;12.80;8.70;;;2.90;59.20;;;;;;5113774;28;20174;-84
2022/03/22 00:37:46;;;;;;;9.70;7.93;;;2.80;59.70;;;;;;5096176;28;20196;-85
2022/03/22 00:40:18;;;;;;;10.27;8.07;;;2.80;59.50;;;;;;5096501;28;20217;-83
2022/03/22 00:42:46;;;;;;;10.40;8.60;;;2.70;59.50;;;;;;5097710;28;20267;-84
2022/03/22 00:45:17;;;;;;;11.10;8.17;;;2.70;59.40;;;;;;5096602;28;20180;-85
2022/03/22 00:47:47;;;;;;;11.63;8.63;;;2.70;59.90;;;;;;5098538;28;20168;-84
2022/03/22 00:50:15;;;;;;;11.53;7.73;;;2.60;59.90;;;;;;5096518;28;20182;-87
2022/03/22 00:52:41;;;;;;;12.73;8.33;;;2.50;60.40;;;;;;5095662;28;20208;-86
2022/03/22 00:55:08;;;;;;;11.67;8.63;;;2.50;60.70;;;;;;5095734;28;20176;-84
2022/03/22 00:57:34;;;;;;;10.80;8.50;;;2.40;60.50;;;;;;5095497;28;20183;-84
2022/03/22 01:00:04;;;;;;;9.53;7.63;;;2.50;60.10;;;;;;5096484;28;20170;-86
2022/03/22 01:02:34;;;;;;;9.47;7.40;;;2.50;60.10;;;;;;5110810;28;20198;-83
2022/03/22 01:05:02;;;;;;;10.83;8.10;;;2.40;60.20;;;;;;5111801;28;20170;-84
2022/03/22 01:07:29;;;;;;;11.10;7.97;;;2.40;60.50;;;;;;5101375;28;20182;-84
2022/03/22 01:09:55;;;;;;;10.30;7.17;;;2.30;60.60;;;;;;5113789;28;20192;-83
2022/03/22 01:12:21;;;;;;;8.83;7.90;;;2.30;60.90;;;;;;5096913;28;20282;-85
2022/03/22 01:14:47;;;;;;;8.20;7.40;;;2.10;61.80;;;;;;5095345;28;20180;-87
2022/03/22 01:17:13;;;;;;;9.00;7.97;;;2.20;60.60;;;;;;5110924;28;20178;-85
2022/03/22 01:19:39;;;;;;;10.27;7.57;;;2.30;61.20;;;;;;5094221;28;20172;-88
2022/03/22 01:22:05;;;;;;;9.03;7.30;;;2.30;60.70;;;;;;5095217;28;20618;-88
2022/03/22 01:24:32;;;;;;;9.83;7.73;;;2.20;61.10;;;;;;5100072;28;20667;-84
2022/03/22 01:26:58;;;;;;;9.87;7.87;;;2.20;61.10;;;;;;5107653;28;20171;-89
2022/03/22 01:29:23;;;;;;;9.67;7.87;;;2.20;61.10;;;;;;5110645;28;20220;-88
2022/03/22 01:31:50;;;;;;;8.33;7.43;;;2.20;61.70;;;;;;5115673;28;20199;-90
2022/03/22 01:34:16;;;;;;;10.37;7.73;;;2.10;61.30;;;;;;5115458;28;20167;-88
2022/03/22 01:36:42;;;;;;;10.07;7.97;;;2.00;62.10;;;;;;5115521;28;20176;-87
2022/03/22 01:39:08;;;;;;;13.57;8.03;;;2.00;61.70;;;;;;5115501;28;20173;-89
2022/03/22 01:41:34;;;;;;;12.03;7.97;;;2.00;61.50;;;;;;5115200;28;20165;-87
2022/03/22 01:44:00;;;;;;;11.93;7.30;;;2.10;61.90;;;;;;5115568;28;20173;-92
2022/03/22 01:46:27;;;;;;;10.17;8.13;;;2.00;61.80;;;;;;5115759;28;20205;-88
2022/03/22 01:48:53;;;;;;;8.47;7.57;;;2.00;62.00;;;;;;5115439;28;20178;-85
2022/03/22 01:51:23;;;;;;;8.27;7.27;;;2.00;62.00;;;;;;5116230;28;20190;-84
2022/03/22 01:53:49;;;;;;;8.07;7.17;;;2.00;62.10;;;;;;5116005;28;20211;-83
2022/03/22 01:56:16;;;;;;;8.80;7.70;;;1.90;62.00;;;;;;5114635;28;20241;-84
2022/03/22 01:58:42;;;;;;;9.40;7.53;;;1.90;62.10;;;;;;5114634;28;20172;-84
2022/03/22 02:06:41;;;;;;;8.67;7.63;;;1.70;62.10;;;;;;5115575;28;20628;-84
2022/03/22 02:09:07;;;;;;;10.53;7.30;;;1.70;62.20;;;;;;5114513;28;20171;-84
2022/03/22 02:11:34;;;;;;;8.30;7.47;;;1.70;62.60;;;;;;5114120;28;20541;-84
2022/03/22 02:14:00;;;;;;;9.53;7.73;;;1.80;62.30;;;;;;5115712;28;20170;-89
2022/03/22 02:16:26;;;;;;;9.73;7.23;;;1.70;62.40;;;;;;5122758;28;20186;-85
2022/03/22 02:18:53;;;;;;;9.77;7.03;;;1.70;62.80;;;;;;5120636;28;20674;-88
2022/03/22 02:21:20;;;;;;;12.07;8.00;;;1.70;63.10;;;;;;5120532;28;20172;-88
2022/03/22 02:23:53;;;;;;;9.83;7.70;;;1.70;62.80;;;;;;5115211;28;20171;-88
2022/03/22 02:26:20;;;;;;;9.83;7.53;;;1.70;63.20;;;;;;5114611;28;20160;-89
2022/03/22 02:28:46;;;;;;;7.90;7.10;;;1.70;63.40;;;;;;5114386;28;20221;-87
2022/03/22 02:31:15;;;;;;;9.30;7.57;;;1.60;63.40;;;;;;5114634;28;20163;-91
2022/03/22 02:33:45;;;;;;;8.57;7.53;;;1.60;63.50;;;;;;5115119;28;20205;-91
2022/03/22 02:36:11;;;;;;;9.07;7.67;;;1.60;63.50;;;;;;5114333;28;20169;-89
2022/03/22 02:38:37;;;;;;;9.27;7.43;;;1.60;63.70;;;;;;5114358;28;20172;-87
2022/03/22 02:41:05;;;;;;;9.67;7.83;;;1.60;63.60;;;;;;5114319;28;20168;-91
2022/03/22 02:43:31;;;;;;;10.70;7.30;;;1.60;63.20;;;;;;5096387;28;20539;-85
2022/03/22 02:45:57;;;;;;;8.20;7.20;;;1.50;63.30;;;;;;5114520;28;20216;-86
2022/03/22 02:48:23;;;;;;;11.53;7.50;;;1.50;63.30;;;;;;5116412;28;20174;-83
2022/03/22 02:50:49;;;;;;;10.30;7.20;;;1.50;63.80;;;;;;5120378;28;20169;-86
2022/03/22 02:53:15;;;;;;;7.80;7.00;;;1.40;63.60;;;;;;5114516;28;20233;-89
2022/03/22 02:55:41;;;;;;;8.77;7.80;;;1.30;64.10;;;;;;5114250;28;20171;-88
2022/03/22 02:58:07;;;;;;;9.23;7.00;;;1.30;63.50;;;;;;5114414;28;20174;-88
2022/03/22 03:00:34;;;;;;;9.60;6.60;;;1.40;63.50;;;;;;5114672;28;20179;-86
2022/03/22 03:03:01;;;;;;;8.37;7.40;;;1.40;63.50;;;;;;5114110;28;20172;-90
2022/03/22 03:05:27;;;;;;;8.97;7.00;;;1.40;63.20;;;;;;5114207;28;20173;-87
2022/03/22 03:07:53;;;;;;;7.73;6.53;;;1.40;63.60;;;;;;5114730;28;20180;-87
2022/03/22 03:10:19;;;;;;;8.13;7.33;;;1.40;63.20;;;;;;5095960;28;20540;-86
2022/03/22 03:12:45;;;;;;;8.03;7.00;;;1.40;63.40;;;;;;5114065;28;20208;-87
2022/03/22 03:15:11;;;;;;;8.33;6.90;;;1.40;63.40;;;;;;5115785;28;20256;-86
2022/03/22 03:17:38;;;;;;;9.57;6.73;;;1.40;63.80;;;;;;5124647;28;20215;-89
2022/03/22 03:20:06;;;;;;;9.60;7.40;;;1.40;64.20;;;;;;5116987;28;20173;-87
2022/03/22 03:22:32;;;;;;;7.77;6.97;;;1.30;63.60;;;;;;5125371;28;20181;-85
2022/03/22 03:24:59;;;;;;;7.40;6.37;;;1.10;63.80;;;;;;5103063;28;20175;-90
2022/03/22 03:27:25;;;;;;;10.33;7.40;;;1.20;64.50;;;;;;5115256;28;20168;-91
2022/03/22 03:29:51;;;;;;;7.57;6.77;;;1.30;64.00;;;;;;5096446;28;20219;-91
2022/03/22 03:32:17;;;;;;;8.53;7.17;;;1.30;63.40;;;;;;5096679;28;20628;-91
2022/03/22 03:34:43;;;;;;;8.37;6.80;;;1.40;63.60;;;;;;5114466;28;20221;-90
2022/03/22 03:37:09;;;;;;;7.07;6.47;;;1.30;63.50;;;;;;5117974;28;20175;-86
2022/03/22 03:39:38;;;;;;;7.80;6.70;;;1.30;63.60;;;;;;5117669;28;20178;-85
2022/03/22 03:42:05;;;;;;;11.27;7.30;;;1.30;63.90;;;;;;5116821;28;20179;-86
2022/03/22 03:47:19;;;;;;;7.47;6.73;;;1.10;64.30;;;;;;5117647;28;20167;-83
2022/03/22 03:49:45;;;;;;;8.47;7.50;;;1.10;64.30;;;;;;5117314;28;20167;-84
2022/03/22 03:52:14;;;;;;;11.20;7.33;;;1.20;63.80;;;;;;5117241;28;20302;-86
2022/03/22 03:54:41;;;;;;;10.57;7.33;;;1.00;64.10;;;;;;5099568;28;20167;-87
2022/03/22 03:57:08;;;;;;;10.60;7.03;;;0.90;64.40;;;;;;5117956;28;20185;-89
2022/03/22 03:59:34;;;;;;;10.03;6.57;;;0.90;64.00;;;;;;5103701;28;20525;-88
2022/03/22 04:02:01;;;;;;;7.83;7.03;;;1.00;63.90;;;;;;5117460;28;20176;-87
2022/03/22 04:04:27;;;;;;;8.73;6.70;;;1.00;63.80;;;;;;5120645;28;20521;-83
2022/03/22 04:06:53;;;;;;;7.83;7.03;;;1.00;63.90;;;;;;5125220;28;20175;-83
2022/03/22 04:09:19;;;;;;;10.40;7.83;;;0.90;64.00;;;;;;5117511;28;20174;-84
2022/03/22 04:11:45;;;;;;;8.87;7.13;;;0.90;64.50;;;;;;5117446;28;20209;-87
2022/03/22 04:14:12;;;;;;;8.20;6.77;;;0.90;64.20;;;;;;5116983;28;20182;-87
2022/03/22 04:16:39;;;;;;;8.07;7.30;;;0.90;64.60;;;;;;5098497;28;20232;-88
2022/03/22 04:19:08;;;;;;;9.10;6.87;;;0.90;64.80;;;;;;5116640;28;20171;-86
2022/03/22 04:21:35;;;;;;;9.17;7.27;;;0.90;64.80;;;;;;5116864;28;20256;-88
2022/03/22 04:24:09;;;;;;;7.17;6.47;;;0.90;64.50;;;;;;5098578;28;20184;-87
2022/03/22 04:26:44;;;;;;;10.00;7.20;;;0.90;64.70;;;;;;5116563;28;20224;-88
2022/03/22 04:34:42;;;;;;;8.13;7.10;;;1.10;64.40;;;;;;5096829;28;20238;-90
2022/03/22 04:37:12;;;;;;;11.37;7.70;;;1.10;64.80;;;;;;5111457;28;20260;-88
2022/03/22 04:39:39;;;;;;;10.40;6.83;;;0.90;64.90;;;;;;5112860;28;20181;-83
2022/03/22 04:42:05;;;;;;;9.47;7.60;;;0.90;65.00;;;;;;5099528;28;20168;-85
2022/03/22 04:44:31;;;;;;;8.90;6.47;;;1.00;64.90;;;;;;5115032;28;20177;-86
2022/03/22 04:46:58;;;;;;;9.60;6.93;;;1.00;65.20;;;;;;5095861;28;20183;-84
2022/03/22 04:49:26;;;;;;;7.90;7.10;;;1.00;64.80;;;;;;5095578;28;20171;-86
2022/03/22 04:57:22;;;;;;;8.10;7.10;;;1.10;64.40;;;;;;5096853;28;20226;-83
2022/03/22 04:59:48;;;;;;;10.30;6.73;;;1.10;64.80;;;;;;5095250;28;20180;-84
2022/03/22 05:02:15;;;;;;;12.53;7.20;;;1.10;64.30;;;;;;5095421;28;20262;-85
2022/03/22 05:04:42;;;;;;;9.33;7.10;;;1.10;64.70;;;;;;5094952;28;20393;-84
2022/03/22 05:07:08;;;;;;;7.67;6.47;;;1.10;64.90;;;;;;5094994;28;20175;-84
2022/03/22 05:09:35;;;;;;;7.87;6.90;;;1.20;64.30;;;;;;5094956;28;20172;-83
2022/03/22 05:12:02;;;;;;;9.57;7.17;;;1.20;64.10;;;;;;5110572;28;20207;-83
2022/03/22 05:14:27;;;;;;;8.47;7.00;;;1.20;64.50;;;;;;5095034;28;20198;-84
2022/03/22 05:16:56;;;;;;;8.10;7.30;;;1.30;63.80;;;;;;5094942;28;20194;-84
2022/03/22 05:19:23;;;;;;;10.87;7.20;;;1.30;63.10;;;;;;5095503;28;20168;-89
2022/03/22 05:21:49;;;;;;;7.30;6.57;;;1.40;62.90;;;;;;5095126;28;20639;-89
2022/03/22 05:24:14;;;;;;;8.90;7.10;;;1.40;62.90;;;;;;5105051;28;20179;-84
2022/03/22 05:26:40;;;;;;;8.10;7.20;;;1.40;62.70;;;;;;5111446;28;20227;-84
2022/03/22 05:29:06;;;;;;;7.87;6.73;;;1.50;62.70;;;;;;5117862;28;20227;-85
2022/03/22 05:31:34;;;;;;;10.30;6.40;;;1.50;62.60;;;;;;5117991;28;20246;-85
2022/03/22 05:34:01;;;;;;;7.53;6.43;;;1.50;62.60;;;;;;5116307;28;20503;-86
2022/03/22 05:36:27;;;;;;;8.10;7.03;;;1.60;62.60;;;;;;5117243;28;20248;-85
2022/03/22 05:38:53;;;;;;;10.93;7.23;;;1.70;62.30;;;;;;5101853;28;20182;-86
2022/03/22 05:41:20;;;;;;;9.10;7.03;;;1.70;61.90;;;;;;5124104;28;20176;-85
2022/03/22 05:43:46;;;;;;;12.93;7.37;;;1.70;62.00;;;;;;5115579;28;20258;-86
2022/03/22 05:46:15;;;;;;;10.33;7.43;;;1.70;61.90;;;;;;5117166;28;20179;-86
2022/03/22 05:48:41;;;;;;;11.27;7.47;;;1.80;62.10;;;;;;5097932;28;20656;-91
2022/03/22 05:51:06;;;;;;;11.17;7.07;;;1.80;61.90;;;;;;5099905;28;20223;-85
2022/03/22 05:53:32;;;;;;;7.43;6.60;;;1.80;62.00;;;;;;5119744;28;20612;-86
2022/03/22 05:55:58;;;;;;;10.17;6.67;;;1.90;61.80;;;;;;5117583;28;20191;-85
2022/03/22 05:58:24;;;;;;;10.77;7.40;;;2.00;61.50;;;;;;5115018;28;20209;-90
2022/03/22 06:00:50;;;;;;;9.17;6.83;;;2.00;61.60;;;;;;5113711;28;20185;-86
2022/03/22 06:03:16;;;;;;;12.57;7.00;;;2.10;61.90;;;;;;5114956;28;20181;-88
2022/03/22 06:05:42;;;;;;;9.63;6.87;;;2.10;61.60;;;;;;5114628;28;20179;-86
2022/03/22 06:08:09;;;;;;;10.00;7.63;;;2.10;61.40;;;;;;5120062;28;20623;-86
2022/03/22 06:10:34;;;;;;;10.07;6.93;;;2.20;62.40;;;;;;5103916;28;20173;-87
2022/03/22 06:13:01;;;;;;;13.70;7.50;;;2.20;62.10;;;;;;5101729;28;20303;-88
2022/03/22 06:15:31;;;;;;;12.43;7.77;;;2.30;61.80;;;;;;5120833;28;20173;-86
2022/03/22 06:18:03;;;;;;;13.30;7.13;;;2.40;61.50;;;;;;5116053;28;20263;-89
2022/03/22 06:20:41;;;;;;;10.23;6.90;;;2.50;60.80;;;;;;5115931;28;20195;-89
2022/03/22 06:23:13;;;;;;;14.53;7.50;;;2.60;60.60;;;;;;5118207;28;20185;-89
2022/03/22 06:25:40;;;;;;;9.23;7.13;;;2.70;60.50;;;;;;5097359;28;20259;-87
2022/03/22 06:28:09;;;;;;;14.97;8.07;;;2.80;60.30;;;;;;5114801;28;20565;-86
2022/03/22 06:30:35;;;;;;;8.37;7.30;;;2.90;59.90;;;;;;5097067;28;20161;-89
2022/03/22 06:33:12;;;;;;;9.53;7.17;;;2.90;60.00;;;;;;5098828;28;20299;-89
2022/03/22 06:35:39;;;;;;;9.70;7.37;;;3.00;59.50;;;;;;5115517;28;20598;-87
2022/03/22 06:38:06;;;;;;;11.87;7.53;;;3.00;59.50;;;;;;5114307;28;20181;-86
2022/03/22 06:40:37;;;;;;;10.53;7.50;;;3.00;59.70;;;;;;5114426;28;20659;-88
2022/03/22 06:43:05;;;;;;;11.17;7.50;;;3.00;59.50;;;;;;5112023;28;20179;-90
2022/03/22 06:45:31;;;;;;;10.77;7.63;;;3.10;59.70;;;;;;5114358;28;20185;-90
2022/03/22 06:47:57;;;;;;;13.17;7.43;;;3.10;59.40;;;;;;5114189;28;20217;-87
2022/03/22 06:50:24;;;;;;;8.73;7.40;;;3.20;59.60;;;;;;5112814;28;20177;-87
2022/03/22 06:52:50;;;;;;;12.00;7.53;;;3.20;59.40;;;;;;5114027;28;20197;-90
2022/03/22 06:55:18;;;;;;;12.03;7.60;;;3.30;59.30;;;;;;5113023;28;20610;-88
2022/03/22 06:57:43;;;;;;;11.17;7.60;;;3.40;59.10;;;;;;5096057;28;20181;-92
2022/03/22 07:00:12;;;;;;;11.57;7.63;;;3.50;59.30;;;;;;5096319;28;20173;-91
2022/03/22 07:02:39;;;;;;;9.60;7.60;;;3.60;58.80;;;;;;5112869;28;20206;-92
2022/03/22 07:05:06;;;;;;;15.73;7.87;;;3.60;58.70;;;;;;5114625;28;20248;-92
2022/03/22 07:07:32;;;;;;;9.83;7.47;;;3.70;58.50;;;;;;5114591;28;20279;-91
2022/03/22 07:09:58;;;;;;;10.37;7.47;;;3.80;58.40;;;;;;5096117;28;20228;-89
2022/03/22 07:12:24;;;;;;;12.37;8.43;;;3.90;58.00;;;;;;5113928;28;20728;-86
2022/03/22 07:14:50;;;;;;;17.37;7.87;;;4.00;57.90;;;;;;5114129;28;20527;-90
2022/03/22 07:17:15;;;;;;;9.27;7.87;;;4.10;57.60;;;;;;5115727;28;20180;-88
2022/03/22 07:19:41;;;;;;;13.20;7.90;;;4.20;57.30;;;;;;5117778;28;20170;-89
2022/03/22 07:22:07;;;;;;;11.07;7.87;;;4.20;57.90;;;;;;5099726;28;20482;-89
2022/03/22 07:24:34;;;;;;;11.80;7.47;;;4.20;57.30;;;;;;5118289;28;20628;-87
2022/03/22 07:27:00;;;;;;;9.33;7.10;;;4.30;57.50;;;;;;5120683;28;20217;-89
2022/03/22 07:29:25;;;;;;;12.53;7.53;;;4.40;57.20;;;;;;5117851;28;20226;-88
2022/03/22 07:31:52;;;;;;;10.13;7.57;;;4.50;57.30;;;;;;5117003;28;20639;-87
2022/03/22 07:34:19;;;;;;;9.87;7.93;;;4.50;57.20;;;;;;5117947;28;20230;-85
2022/03/22 07:36:46;;;;;;;9.63;7.63;;;4.60;57.00;;;;;;5099603;28;20181;-90
2022/03/22 07:39:13;;;;;;;10.30;7.90;;;4.60;57.00;;;;;;5120182;28;20577;-88
2022/03/22 07:41:43;;;;;;;11.93;8.03;;;4.70;57.40;;;;;;5120105;28;20179;-91
2022/03/22 07:44:12;;;;;;;16.40;8.20;;;4.80;57.40;;;;;;5101497;28;20184;-86
2022/03/22 07:46:39;;;;;;;17.87;8.77;;;4.90;57.90;;;;;;5100400;28;20181;-89
2022/03/22 07:54:33;;;;;;;13.40;8.50;;;5.10;57.20;;;;;;5117324;28;20183;-87
2022/03/22 07:56:59;;;;;;;11.87;7.57;;;5.30;56.20;;;;;;5116945;28;20161;-89
2022/03/22 07:59:27;;;;;;;12.43;8.73;;;5.50;56.60;;;;;;5098297;28;20625;-86
2022/03/22 08:01:53;;;;;;;11.70;8.17;;;5.60;56.10;;;;;;5119353;28;20167;-85
2022/03/22 08:04:19;;;;;;;12.37;10.07;;;5.70;55.30;;;;;;5118987;28;20260;-88
2022/03/22 08:06:46;;;;;;;10.67;7.50;;;5.80;55.90;;;;;;5099897;28;20176;-87
2022/03/22 08:09:12;;;;;;;12.70;7.83;;;5.80;55.00;;;;;;5099741;28;20178;-90
2022/03/22 08:11:42;;;;;;;11.93;7.87;;;6.00;55.20;;;;;;5101183;28;20175;-87
2022/03/22 08:14:09;;;;;;;17.77;13.30;;;6.00;54.70;;;;;;5121450;28;20169;-88
2022/03/22 08:16:38;;;;;;;18.10;14.80;;;6.10;55.50;;;;;;5119076;28;20176;-86
2022/03/22 08:19:07;;;;;;;14.77;10.73;;;6.10;56.30;;;;;;5118037;28;20180;-88
2022/03/22 08:21:34;;;;;;;12.37;8.87;;;6.20;55.80;;;;;;5120061;28;20177;-86
2022/03/22 08:24:01;;;;;;;11.50;7.60;;;6.30;55.30;;;;;;5117066;28;20268;-87
2022/03/22 08:26:27;;;;;;;10.87;7.77;;;6.40;53.20;;;;;;5116786;28;20536;-88
2022/03/22 08:28:54;;;;;;;12.43;7.93;;;6.60;52.50;;;;;;5097333;28;20709;-86
2022/03/22 08:31:20;;;;;;;10.00;7.37;;;6.70;52.00;;;;;;5098261;28;20198;-86
2022/03/22 08:33:46;;;;;;;11.27;7.80;;;6.80;52.30;;;;;;5116357;28;20232;-86
2022/03/22 08:36:12;;;;;;;13.57;8.50;;;6.90;52.30;;;;;;5116523;28;20174;-87
2022/03/22 08:38:37;;;;;;;13.43;9.17;;;6.90;52.80;;;;;;5097787;28;20200;-88
2022/03/22 08:41:03;;;;;;;16.07;9.10;;;6.90;52.40;;;;;;5116373;28;20556;-90
2022/03/22 08:43:30;;;;;;;17.17;9.70;;;7.00;53.40;;;;;;5116206;28;20229;-85
2022/03/22 08:45:56;;;;;;;27.60;11.37;;;7.20;53.90;;;;;;5115991;28;20164;-86
2022/03/22 08:48:23;;;;;;;20.17;11.17;;;7.20;54.60;;;;;;5117408;28;20177;-84
2022/03/22 08:50:50;;;;;;;22.07;11.30;;;7.30;54.60;;;;;;5118963;28;20286;-87
2022/03/22 08:53:18;;;;;;;20.80;10.67;;;7.50;54.10;;;;;;5119455;28;20226;-91
2022/03/22 08:55:48;;;;;;;15.50;10.20;;;7.60;54.00;;;;;;5098928;28;20647;-88
2022/03/22 08:58:15;;;;;;;17.33;10.57;;;7.50;53.70;;;;;;5116313;28;20176;-89
2022/03/22 09:00:41;;;;;;;20.77;10.00;;;7.60;53.60;;;;;;5116397;28;20175;-89
2022/03/22 09:03:11;;;;;;;16.20;10.50;;;7.70;53.30;;;;;;5116259;28;20175;-88
2022/03/22 09:08:24;;;;;;;18.07;10.20;;;7.90;52.10;;;;;;5115680;28;20169;-93
2022/03/22 09:10:51;;;;;;;15.73;9.33;;;8.10;51.40;;;;;;5115689;28;20564;-89
2022/03/22 09:13:18;;;;;;;12.10;7.80;;;8.10;50.50;;;;;;5115001;28;20239;-88
2022/03/22 09:15:46;;;;;;;9.50;8.50;;;8.00;49.20;;;;;;5115644;28;20748;-86
2022/03/22 09:18:15;;;;;;;9.43;7.20;;;8.00;48.40;;;;;;5097078;28;20198;-85
2022/03/22 09:20:43;;;;;;;8.50;7.10;;;8.10;47.00;;;;;;5097632;28;20173;-86
2022/03/22 09:23:10;;;;;;;8.67;7.77;;;8.10;47.10;;;;;;5116727;28;20658;-86
2022/03/22 09:25:37;;;;;;;17.23;11.60;;;8.20;46.90;;;;;;5120925;28;20252;-86
2022/03/22 09:28:05;;;;;;;12.80;7.40;;;8.30;47.10;;;;;;5098208;28;20223;-86
2022/03/22 09:30:33;;;;;;;8.00;6.33;;;8.30;46.10;;;;;;5118302;28;20154;-88
2022/03/22 09:32:59;;;;;;;11.67;7.20;;;8.50;44.10;;;;;;5117131;28;20337;-89
2022/03/22 09:35:25;;;;;;;7.97;7.17;;;8.50;44.30;;;;;;5115911;28;20253;-88
2022/03/22 09:37:52;;;;;;;14.13;7.30;;;8.50;45.60;;;;;;5115934;28;20300;-88
2022/03/22 09:40:19;;;;;;;8.40;7.30;;;8.60;46.80;;;;;;5114946;28;20245;-85
2022/03/22 09:42:46;;;;;;;8.50;7.37;;;8.70;46.80;;;;;;5115327;28;20181;-86
2022/03/22 09:45:24;;;;;;;10.63;6.70;;;8.80;46.40;;;;;;5115605;28;20318;-87
2022/03/22 09:47:51;;;;;;;13.50;7.27;;;8.90;44.80;;;;;;5115261;28;20214;-87
2022/03/22 09:50:17;;;;;;;9.57;7.60;;;9.00;44.30;;;;;;5115218;28;20183;-87
2022/03/22 09:52:44;;;;;;;9.67;7.77;;;9.10;44.30;;;;;;5115449;28;20208;-88
2022/03/22 09:55:12;;;;;;;11.43;7.57;;;9.20;44.50;;;;;;5115345;28;20173;-85
2022/03/22 09:57:39;;;;;;;8.87;8.07;;;9.20;44.90;;;;;;5097069;28;20184;-87
2022/03/22 10:00:06;;;;;;;10.43;8.27;;;9.30;44.60;;;;;;5114919;28;20646;-88
2022/03/22 10:02:35;;;;;;;9.13;8.03;;;9.30;45.00;;;;;;5115582;28;20595;-87
2022/03/22 10:05:02;;;;;;;10.87;8.23;;;9.30;44.40;;;;;;5114798;28;20170;-85
2022/03/22 10:07:28;;;;;;;10.97;8.47;;;9.30;45.60;;;;;;5115642;28;20174;-88
2022/03/22 10:09:59;;;;;;;12.23;8.97;;;9.50;44.30;;;;;;5115036;28;20202;-87
2022/03/22 10:12:31;;;;;;;10.67;8.70;;;9.60;44.80;;;;;;5114652;28;20201;-84
2022/03/22 10:15:08;;;;;;;15.40;8.90;;;9.50;44.40;;;;;;5115598;28;20174;-85
2022/03/22 10:17:34;;;;;;;11.17;9.03;;;9.40;45.20;;;;;;5114586;28;20203;-87
2022/03/22 10:20:00;;;;;;;11.73;9.27;;;9.50;45.20;;;;;;5115742;28;20166;-86
2022/03/22 10:22:27;;;;;;;10.67;8.50;;;9.60;45.20;;;;;;5115491;28;20177;-91
2022/03/22 10:25:00;;;;;;;13.60;10.00;;;9.70;45.70;;;;;;5115673;28;20295;-88
2022/03/22 10:27:29;;;;;;;11.83;9.10;;;9.70;44.60;;;;;;5114653;28;20236;-87
2022/03/22 10:29:56;;;;;;;12.17;8.40;;;9.80;44.30;;;;;;5096242;28;20222;-89
2022/03/22 10:32:51;;;;;;;11.20;8.57;;;9.80;43.40;;;;;;5114734;28;20267;-85
2022/03/22 10:35:29;;;;;;;9.63;8.40;;;9.90;43.30;;;;;;5113187;28;20548;-85
2022/03/22 10:38:06;;;;;;;10.80;8.53;;;10.00;42.30;;;;;;5115847;28;20183;-86
2022/03/22 10:40:41;;;;;;;10.50;8.50;;;9.90;43.60;;;;;;5130694;28;20643;-85
2022/03/22 10:43:12;;;;;;;9.43;8.03;;;9.90;43.80;;;;;;5135853;28;20221;-83
2022/03/22 10:45:53;;;;;;;9.57;8.37;;;9.90;44.80;;;;;;5108789;28;20173;-84
2022/03/22 10:48:30;;;;;;;11.63;8.27;;;10.10;41.70;;;;;;5120878;28;20586;-86
2022/03/22 10:51:00;;;;;;;10.30;8.63;;;10.10;41.70;;;;;;5100234;28;20260;-88
2022/03/22 10:53:30;;;;;;;10.10;7.73;;;10.10;42.40;;;;;;5120305;28;20201;-89
2022/03/22 10:55:58;;;;;;;10.30;8.50;;;10.30;42.30;;;;;;5101624;28;20178;-87
2022/03/22 10:58:26;;;;;;;10.83;8.70;;;10.30;42.40;;;;;;5120246;28;20636;-91
2022/03/22 11:00:54;;;;;;;12.93;8.20;;;10.40;42.00;;;;;;5120484;28;20652;-89
2022/03/22 11:03:20;;;;;;;8.13;7.40;;;10.40;42.30;;;;;;5118854;28;20183;-88
2022/03/22 11:05:50;;;;;;;9.43;7.67;;;10.50;39.80;;;;;;5119062;28;20177;-88
2022/03/22 11:08:23;;;;;;;8.33;7.40;;;10.50;39.80;;;;;;5121127;28;20164;-87
2022/03/22 11:10:51;;;;;;;9.13;8.23;;;10.50;40.00;;;;;;5119615;28;20202;-88
2022/03/22 11:13:17;;;;;;;9.00;8.10;;;10.50;40.40;;;;;;5121712;28;20198;-86
2022/03/22 11:15:47;;;;;;;9.37;7.70;;;10.50;40.30;;;;;;5119186;28;20178;-89
2022/03/22 11:18:15;;;;;;;9.43;7.60;;;10.50;40.50;;;;;;5118511;28;20212;-86
2022/03/22 11:21:00;;;;;;;10.97;7.87;;;10.60;40.10;;;;;;5118000;28;20177;-85
2022/03/22 11:23:28;;;;;;;9.57;8.63;;;10.70;40.40;;;;;;5118116;28;20208;-87
2022/03/22 11:25:54;;;;;;;10.77;8.37;;;10.70;40.80;;;;;;5099486;28;20170;-85
2022/03/22 11:28:23;;;;;;;8.30;7.27;;;10.60;40.40;;;;;;5118115;28;20290;-86
2022/03/22 11:30:51;;;;;;;7.73;7.03;;;10.60;40.20;;;;;;5118094;28;20170;-87
2022/03/22 11:36:20;;;;;;;7.07;6.47;;;10.70;39.20;;;;;;5118779;28;20165;-89
2022/03/22 11:38:53;;;;;;;6.47;5.83;;;10.80;36.70;;;;;;5100028;28;20178;-89
2022/03/22 11:44:15;;;;;;;7.73;6.43;;;11.00;34.00;;;;;;5117818;28;20177;-86
2022/03/22 11:46:42;;;;;;;8.40;6.10;;;11.00;35.00;;;;;;5117984;28;20633;-85
2022/03/22 11:49:22;;;;;;;7.27;6.63;;;11.00;36.10;;;;;;5117905;28;20217;-86
2022/03/22 11:51:54;;;;;;;9.47;7.60;;;11.10;38.00;;;;;;5118492;28;20221;-87
2022/03/22 11:54:21;;;;;;;7.20;6.50;;;11.20;38.20;;;;;;5118194;28;20157;-86
2022/03/22 11:56:53;;;;;;;8.00;6.30;;;11.20;37.00;;;;;;5119260;28;20171;-84
2022/03/22 11:59:20;;;;;;;7.40;6.77;;;11.30;36.00;;;;;;5118103;28;20158;-86
2022/03/22 12:01:56;;;;;;;7.60;7.00;;;11.30;36.60;;;;;;5119852;28;20658;-87
2022/03/22 12:04:34;;;;;;;7.87;7.00;;;11.20;39.10;;;;;;5121247;28;20190;-85
2022/03/22 12:07:00;;;;;;;7.77;6.80;;;11.20;37.60;;;;;;5117971;28;20191;-86
2022/03/22 12:09:26;;;;;;;10.50;7.37;;;11.20;36.40;;;;;;5117077;28;20168;-85
2022/03/22 12:11:54;;;;;;;10.33;7.60;;;11.20;35.60;;;;;;5116867;28;20631;-85
2022/03/22 12:14:34;;;;;;;8.90;7.17;;;11.30;35.90;;;;;;5098515;28;20182;-84
2022/03/22 12:17:02;;;;;;;8.27;6.43;;;11.30;36.40;;;;;;5116805;28;20163;-85
2022/03/22 12:19:30;;;;;;;9.80;6.93;;;11.30;36.90;;;;;;5116951;28;20187;-86
2022/03/22 12:21:58;;;;;;;8.93;6.83;;;11.40;37.90;;;;;;5116755;28;20167;-85
2022/03/22 12:24:27;;;;;;;12.03;7.07;;;11.40;38.00;;;;;;5116750;28;20169;-86
2022/03/22 12:26:56;;;;;;;7.77;7.03;;;11.40;38.20;;;;;;5116458;28;20196;-84
2022/03/22 12:29:23;;;;;;;9.73;6.57;;;11.50;38.50;;;;;;5116602;28;20691;-86
2022/03/22 12:31:50;;;;;;;7.83;6.93;;;11.50;38.20;;;;;;5116693;28;20176;-89
2022/03/22 12:34:17;;;;;;;9.67;6.93;;;11.50;36.60;;;;;;5116780;28;20180;-85
2022/03/22 12:36:43;;;;;;;7.27;6.40;;;11.50;36.10;;;;;;5117117;28;20176;-88
2022/03/22 12:39:09;;;;;;;7.60;6.90;;;11.60;35.80;;;;;;5098357;28;20214;-88
2022/03/22 12:41:35;;;;;;;7.53;6.83;;;11.60;36.70;;;;;;5116613;28;20272;-89
2022/03/22 12:44:01;;;;;;;7.00;6.40;;;11.60;37.50;;;;;;5117506;28;20649;-87
2022/03/22 12:46:28;;;;;;;9.80;6.37;;;11.60;36.20;;;;;;5116431;28;20195;-88
2022/03/22 12:48:55;;;;;;;10.97;6.57;;;11.70;35.50;;;;;;5116762;28;20178;-89
2022/03/22 12:51:25;;;;;;;8.40;6.20;;;11.70;36.00;;;;;;5117107;28;20173;-91
2022/03/22 12:53:54;;;;;;;7.53;6.73;;;11.70;34.90;;;;;;5117499;28;20296;-88
2022/03/22 12:56:21;;;;;;;7.77;6.40;;;11.70;34.70;;;;;;5117979;28;20255;-86
2022/03/22 12:58:49;;;;;;;7.23;6.50;;;11.80;35.80;;;;;;5117096;28;20226;-89
2022/03/22 13:01:16;;;;;;;7.60;6.83;;;11.80;36.00;;;;;;5116165;28;20165;-88
2022/03/22 13:03:46;;;;;;;8.50;7.13;;;11.80;37.90;;;;;;5097762;28;20180;-90
2022/03/22 13:06:13;;;;;;;7.57;6.77;;;11.80;36.50;;;;;;5116137;28;20545;-88
2022/03/22 13:11:26;;;;;;;9.23;6.03;;;12.00;35.00;;;;;;5116246;28;20191;-88
2022/03/22 13:16:38;;;;;;;8.17;6.50;;;12.10;35.70;;;;;;5116159;28;20524;-87
2022/03/22 13:19:06;;;;;;;7.37;6.27;;;12.10;36.30;;;;;;5115933;28;20212;-89
2022/03/22 13:21:34;;;;;;;7.00;6.00;;;12.10;34.10;;;;;;5115570;28;20170;-86
2022/03/22 13:24:02;;;;;;;7.50;6.67;;;12.20;33.70;;;;;;5116268;28;20212;-86
2022/03/22 13:26:28;;;;;;;9.07;5.70;;;12.10;34.80;;;;;;5115638;28;20255;-85
2022/03/22 13:28:54;;;;;;;9.53;6.30;;;12.10;34.70;;;;;;5115211;28;20249;-87
2022/03/22 13:31:25;;;;;;;7.70;6.47;;;12.10;34.80;;;;;;5115605;28;20173;-86